sensor_id;sensor_type;location;lat;lon;timestamp;pressure;altitude;pressure_sealevel;temperature;humidity
70954;BME280;58618;47.490;8.736;2023-12-20T00:01:19;96787.91;;;2.69;100.00
70954;BME280;58618;47.490;8.736;2023-12-20T00:04:06;96783.91;;;2.73;100.00
70954;BME280;58618;47.490;8.736;2023-12-20T00:06:54;96781.56;;;2.72;100.00
70954;BME280;58618;47.490;8.736;2023-12-20T00:09:41;96774.72;;;2.72;100.00
70954;BME280;58618;47.490;8.736;2023-12-20T00:12:28;96772.38;;;2.71;100.00
70954;BME280;58618;47.490;8.736;2023-12-20T00:15:16;96775.28;;;2.74;100.00
70954;BME280;58618;47.490;8.736;2023-12-20T00:18:05;96773.72;;;2.73;100.00
70954;BME280;58618;47.490;8.736;2023-12-20T00:20:52;96764.91;;;2.87;100.00
70954;BME280;58618;47.490;8.736;2023-12-20T00:23:39;96739.19;;;2.77;100.00
70954;BME280;58618;47.490;8.736;2023-12-20T00:26:27;96719.53;;;3.08;100.00
70954;BME280;58618;47.490;8.736;2023-12-20T00:29:14;96716.47;;;3.29;100.00
70954;BME280;58618;47.490;8.736;2023-12-20T00:32:02;96724.59;;;3.37;100.00
70954;BME280;58618;47.490;8.736;2023-12-20T00:34:51;96745.41;;;3.34;100.00
70954;BME280;58618;47.490;8.736;2023-12-20T00:37:39;96733.56;;;3.40;100.00
70954;BME280;58618;47.490;8.736;2023-12-20T00:40:26;96721.28;;;3.49;100.00
70954;BME280;58618;47.490;8.736;2023-12-20T00:43:14;96723.16;;;3.53;100.00
70954;BME280;58618;47.490;8.736;2023-12-20T00:46:01;96712.72;;;3.43;100.00
70954;BME280;58618;47.490;8.736;2023-12-20T00:48:48;96696.75;;;3.36;100.00
70954;BME280;58618;47.490;8.736;2023-12-20T00:51:37;96710.19;;;3.43;100.00
70954;BME280;58618;47.490;8.736;2023-12-20T00:54:25;96713.38;;;3.50;100.00
70954;BME280;58618;47.490;8.736;2023-12-20T00:57:12;96707.84;;;3.53;100.00
70954;BME280;58618;47.490;8.736;2023-12-20T00:59:59;96703.94;;;3.39;100.00
70954;BME280;58618;47.490;8.736;2023-12-20T01:02:47;96712.50;;;3.33;100.00
70954;BME280;58618;47.490;8.736;2023-12-20T01:05:35;96711.38;;;3.29;100.00
70954;BME280;58618;47.490;8.736;2023-12-20T01:08:24;96704.25;;;3.08;100.00
70954;BME280;58618;47.490;8.736;2023-12-20T01:11:11;96705.16;;;3.25;100.00
70954;BME280;58618;47.490;8.736;2023-12-20T01:13:59;96708.03;;;3.28;100.00
70954;BME280;58618;47.490;8.736;2023-12-20T01:16:46;96717.16;;;3.36;100.00
70954;BME280;58618;47.490;8.736;2023-12-20T01:19:34;96714.69;;;3.18;100.00
70954;BME280;58618;47.490;8.736;2023-12-20T01:22:21;96720.22;;;3.15;100.00
70954;BME280;58618;47.490;8.736;2023-12-20T01:25:10;96724.56;;;3.14;100.00
70954;BME280;58618;47.490;8.736;2023-12-20T01:27:57;96732.75;;;3.16;100.00
70954;BME280;58618;47.490;8.736;2023-12-20T01:30:44;96725.09;;;3.05;100.00
70954;BME280;58618;47.490;8.736;2023-12-20T01:33:32;96726.81;;;2.92;100.00
70954;BME280;58618;47.490;8.736;2023-12-20T01:36:19;96723.09;;;2.95;100.00
70954;BME280;58618;47.490;8.736;2023-12-20T01:39:07;96727.50;;;3.00;100.00
70954;BME280;58618;47.490;8.736;2023-12-20T01:41:55;96727.50;;;3.00;100.00
70954;BME280;58618;47.490;8.736;2023-12-20T01:44:43;96729.84;;;3.01;100.00
70954;BME280;58618;47.490;8.736;2023-12-20T01:47:30;96731.53;;;3.19;100.00
70954;BME280;58618;47.490;8.736;2023-12-20T01:50:18;96731.97;;;3.16;100.00
70954;BME280;58618;47.490;8.736;2023-12-20T01:53:07;96741.97;;;3.29;100.00
70954;BME280;58618;47.490;8.736;2023-12-20T01:55:57;96735.53;;;3.26;100.00
70954;BME280;58618;47.490;8.736;2023-12-20T01:58:47;96727.53;;;3.23;100.00
70954;BME280;58618;47.490;8.736;2023-12-20T02:01:35;96725.09;;;3.28;100.00
70954;BME280;58618;47.490;8.736;2023-12-20T02:04:23;96726.25;;;3.32;100.00
70954;BME280;58618;47.490;8.736;2023-12-20T02:07:11;96726.88;;;3.39;100.00
70954;BME280;58618;47.490;8.736;2023-12-20T02:09:58;96725.47;;;3.43;100.00
70954;BME280;58618;47.490;8.736;2023-12-20T02:12:46;96726.47;;;3.42;100.00
70954;BME280;58618;47.490;8.736;2023-12-20T02:15:35;96725.13;;;3.51;100.00
70954;BME280;58618;47.490;8.736;2023-12-20T02:18:23;96722.59;;;3.51;100.00
70954;BME280;58618;47.490;8.736;2023-12-20T02:21:11;96715.81;;;3.45;100.00
70954;BME280;58618;47.490;8.736;2023-12-20T02:23:59;96711.59;;;3.39;100.00
70954;BME280;58618;47.490;8.736;2023-12-20T02:26:47;96706.41;;;3.46;100.00
70954;BME280;58618;47.490;8.736;2023-12-20T02:29:35;96678.34;;;3.34;100.00
70954;BME280;58618;47.490;8.736;2023-12-20T02:32:24;96697.88;;;3.63;100.00
70954;BME280;58618;47.490;8.736;2023-12-20T02:35:12;96687.88;;;3.73;100.00
70954;BME280;58618;47.490;8.736;2023-12-20T02:37:59;96705.84;;;3.78;100.00
70954;BME280;58618;47.490;8.736;2023-12-20T02:40:48;96702.72;;;3.76;100.00
70954;BME280;58618;47.490;8.736;2023-12-20T02:43:35;96718.91;;;3.94;100.00
70954;BME280;58618;47.490;8.736;2023-12-20T02:46:23;96720.13;;;3.91;100.00
70954;BME280;58618;47.490;8.736;2023-12-20T02:49:10;96706.81;;;3.89;100.00
70954;BME280;58618;47.490;8.736;2023-12-20T02:51:58;96719.22;;;3.97;100.00
70954;BME280;58618;47.490;8.736;2023-12-20T02:54:45;96722.66;;;4.03;100.00
70954;BME280;58618;47.490;8.736;2023-12-20T02:57:34;96722.53;;;3.98;100.00
70954;BME280;58618;47.490;8.736;2023-12-20T03:00:22;96718.00;;;4.00;100.00
70954;BME280;58618;47.490;8.736;2023-12-20T03:03:10;96718.78;;;3.89;100.00
70954;BME280;58618;47.490;8.736;2023-12-20T03:05:58;96728.00;;;3.90;100.00
70954;BME280;58618;47.490;8.736;2023-12-20T03:08:46;96721.34;;;3.89;100.00
70954;BME280;58618;47.490;8.736;2023-12-20T03:11:33;96715.34;;;3.95;100.00
70954;BME280;58618;47.490;8.736;2023-12-20T03:14:22;96723.22;;;3.93;100.00
70954;BME280;58618;47.490;8.736;2023-12-20T03:17:09;96723.91;;;3.89;100.00
70954;BME280;58618;47.490;8.736;2023-12-20T03:19:56;96727.59;;;3.69;100.00
70954;BME280;58618;47.490;8.736;2023-12-20T03:22:44;96719.16;;;3.69;100.00
70954;BME280;58618;47.490;8.736;2023-12-20T03:25:31;96692.19;;;3.50;100.00
70954;BME280;58618;47.490;8.736;2023-12-20T03:28:18;96717.59;;;3.56;100.00
70954;BME280;58618;47.490;8.736;2023-12-20T03:31:09;96711.81;;;3.61;100.00
70954;BME280;58618;47.490;8.736;2023-12-20T03:33:56;96715.72;;;3.63;100.00
70954;BME280;58618;47.490;8.736;2023-12-20T03:36:44;96716.16;;;3.49;100.00
70954;BME280;58618;47.490;8.736;2023-12-20T03:39:33;96708.84;;;3.52;100.00
70954;BME280;58618;47.490;8.736;2023-12-20T03:42:21;96721.91;;;3.56;100.00
70954;BME280;58618;47.490;8.736;2023-12-20T03:45:09;96714.81;;;3.58;100.00
70954;BME280;58618;47.490;8.736;2023-12-20T03:47:58;96729.34;;;3.57;100.00
70954;BME280;58618;47.490;8.736;2023-12-20T03:50:45;96735.44;;;3.56;100.00
70954;BME280;58618;47.490;8.736;2023-12-20T03:53:33;96741.53;;;3.55;100.00
70954;BME280;58618;47.490;8.736;2023-12-20T03:56:20;96732.47;;;3.59;100.00
70954;BME280;58618;47.490;8.736;2023-12-20T03:59:07;96743.66;;;3.58;100.00
70954;BME280;58618;47.490;8.736;2023-12-20T04:01:55;96734.91;;;3.54;100.00
70954;BME280;58618;47.490;8.736;2023-12-20T04:04:43;96749.53;;;3.59;100.00
70954;BME280;58618;47.490;8.736;2023-12-20T04:07:31;96739.66;;;3.62;100.00
70954;BME280;58618;47.490;8.736;2023-12-20T04:10:18;96712.63;;;3.38;100.00
70954;BME280;58618;47.490;8.736;2023-12-20T04:13:06;96747.78;;;3.59;100.00
70954;BME280;58618;47.490;8.736;2023-12-20T04:15:53;96750.22;;;3.54;100.00
70954;BME280;58618;47.490;8.736;2023-12-20T04:18:40;96750.22;;;3.54;100.00
70954;BME280;58618;47.490;8.736;2023-12-20T04:21:29;96751.63;;;3.50;100.00
70954;BME280;58618;47.490;8.736;2023-12-20T04:24:16;96754.75;;;3.52;100.00
70954;BME280;58618;47.490;8.736;2023-12-20T04:27:04;96759.28;;;3.50;100.00
70954;BME280;58618;47.490;8.736;2023-12-20T04:29:51;96760.41;;;3.54;100.00
70954;BME280;58618;47.490;8.736;2023-12-20T04:32:39;96767.38;;;3.59;100.00
70954;BME280;58618;47.490;8.736;2023-12-20T04:35:26;96766.16;;;3.61;100.00
70954;BME280;58618;47.490;8.736;2023-12-20T04:38:15;96780.38;;;3.69;100.00
70954;BME280;58618;47.490;8.736;2023-12-20T04:41:03;96773.91;;;3.66;100.00
70954;BME280;58618;47.490;8.736;2023-12-20T04:43:50;96781.69;;;3.71;100.00
70954;BME280;58618;47.490;8.736;2023-12-20T04:46:37;96766.84;;;3.68;100.00
70954;BME280;58618;47.490;8.736;2023-12-20T04:49:25;96785.91;;;3.77;100.00
70954;BME280;58618;47.490;8.736;2023-12-20T04:52:12;96777.16;;;3.73;100.00
70954;BME280;58618;47.490;8.736;2023-12-20T04:55:02;96788.56;;;3.82;100.00
70954;BME280;58618;47.490;8.736;2023-12-20T04:57:49;96777.94;;;3.86;100.00
70954;BME280;58618;47.490;8.736;2023-12-20T05:00:36;96786.59;;;3.85;100.00
70954;BME280;58618;47.490;8.736;2023-12-20T05:03:24;96785.03;;;3.83;100.00
70954;BME280;58618;47.490;8.736;2023-12-20T05:06:11;96795.69;;;3.80;100.00
70954;BME280;58618;47.490;8.736;2023-12-20T05:08:59;96791.78;;;3.78;100.00
70954;BME280;58618;47.490;8.736;2023-12-20T05:11:47;96793.88;;;3.93;100.00
70954;BME280;58618;47.490;8.736;2023-12-20T05:14:35;96763.94;;;3.76;100.00
70954;BME280;58618;47.490;8.736;2023-12-20T05:17:22;96802.44;;;3.98;100.00
70954;BME280;58618;47.490;8.736;2023-12-20T05:20:10;96799.66;;;4.00;100.00
70954;BME280;58618;47.490;8.736;2023-12-20T05:22:57;96787.47;;;4.02;100.00
70954;BME280;58618;47.490;8.736;2023-12-20T05:25:45;96790.44;;;3.99;100.00
70954;BME280;58618;47.490;8.736;2023-12-20T05:28:33;96797.09;;;4.00;100.00
70954;BME280;58618;47.490;8.736;2023-12-20T05:31:21;96803.31;;;4.04;100.00
70954;BME280;58618;47.490;8.736;2023-12-20T05:34:08;96803.22;;;3.99;100.00
70954;BME280;58618;47.490;8.736;2023-12-20T05:36:58;96811.97;;;4.03;100.00
70954;BME280;58618;47.490;8.736;2023-12-20T05:39:47;96818.53;;;3.99;100.00
70954;BME280;58618;47.490;8.736;2023-12-20T05:42:35;96819.63;;;4.03;100.00
70954;BME280;58618;47.490;8.736;2023-12-20T05:45:25;96830.41;;;4.05;100.00
70954;BME280;58618;47.490;8.736;2023-12-20T05:48:12;96831.59;;;4.14;100.00
70954;BME280;58618;47.490;8.736;2023-12-20T05:50:59;96830.72;;;4.20;100.00
70954;BME280;58618;47.490;8.736;2023-12-20T05:53:47;96825.59;;;4.20;100.00
70954;BME280;58618;47.490;8.736;2023-12-20T05:56:35;96825.94;;;4.23;100.00
70954;BME280;58618;47.490;8.736;2023-12-20T05:59:23;96811.63;;;4.11;100.00
70954;BME280;58618;47.490;8.736;2023-12-20T06:02:11;96821.41;;;4.14;100.00
70954;BME280;58618;47.490;8.736;2023-12-20T06:04:59;96819.19;;;4.17;100.00
70954;BME280;58618;47.490;8.736;2023-12-20T06:07:46;96820.41;;;4.15;100.00
70954;BME280;58618;47.490;8.736;2023-12-20T06:10:34;96822.94;;;4.15;100.00
70954;BME280;58618;47.490;8.736;2023-12-20T06:13:21;96830.41;;;4.16;100.00
70954;BME280;58618;47.490;8.736;2023-12-20T06:16:09;96826.19;;;4.22;100.00
70954;BME280;58618;47.490;8.736;2023-12-20T06:18:57;96838.47;;;4.25;100.00
70954;BME280;58618;47.490;8.736;2023-12-20T06:21:45;96821.16;;;4.27;100.00
70954;BME280;58618;47.490;8.736;2023-12-20T06:24:32;96840.03;;;4.26;100.00
70954;BME280;58618;47.490;8.736;2023-12-20T06:27:20;96834.47;;;4.29;100.00
70954;BME280;58618;47.490;8.736;2023-12-20T06:30:08;96828.94;;;4.32;100.00
70954;BME280;58618;47.490;8.736;2023-12-20T06:32:56;96832.94;;;4.28;100.00
70954;BME280;58618;47.490;8.736;2023-12-20T06:35:45;96838.69;;;4.35;100.00
70954;BME280;58618;47.490;8.736;2023-12-20T06:38:32;96845.03;;;4.33;100.00
70954;BME280;58618;47.490;8.736;2023-12-20T06:41:20;96853.47;;;4.33;100.00
70954;BME280;58618;47.490;8.736;2023-12-20T06:44:07;96849.78;;;4.29;100.00
70954;BME280;58618;47.490;8.736;2023-12-20T06:46:55;96841.38;;;4.17;100.00
70954;BME280;58618;47.490;8.736;2023-12-20T06:49:42;96859.56;;;4.32;100.00
70954;BME280;58618;47.490;8.736;2023-12-20T06:52:31;96865.56;;;4.26;100.00
70954;BME280;58618;47.490;8.736;2023-12-20T06:55:18;96865.31;;;4.39;100.00
70954;BME280;58618;47.490;8.736;2023-12-20T06:58:05;96855.09;;;4.39;100.00
70954;BME280;58618;47.490;8.736;2023-12-20T07:00:53;96859.13;;;4.35;100.00
70954;BME280;58618;47.490;8.736;2023-12-20T07:03:41;96865.78;;;4.36;100.00
70954;BME280;58618;47.490;8.736;2023-12-20T07:06:28;96869.91;;;4.37;100.00
70954;BME280;58618;47.490;8.736;2023-12-20T07:09:17;96869.13;;;4.37;100.00
70954;BME280;58618;47.490;8.736;2023-12-20T07:12:05;96871.09;;;4.46;100.00
70954;BME280;58618;47.490;8.736;2023-12-20T07:14:52;96866.78;;;4.47;100.00
70954;BME280;58618;47.490;8.736;2023-12-20T07:17:39;96851.75;;;4.50;100.00
70954;BME280;58618;47.490;8.736;2023-12-20T07:20:27;96854.88;;;4.52;100.00
70954;BME280;58618;47.490;8.736;2023-12-20T07:23:14;96866.19;;;4.56;100.00
70954;BME280;58618;47.490;8.736;2023-12-20T07:26:03;96876.41;;;4.56;100.00
70954;BME280;58618;47.490;8.736;2023-12-20T07:28:51;96882.19;;;4.63;100.00
70954;BME280;58618;47.490;8.736;2023-12-20T07:31:38;96875.72;;;4.73;100.00
70954;BME280;58618;47.490;8.736;2023-12-20T07:34:26;96878.19;;;4.67;100.00
70954;BME280;58618;47.490;8.736;2023-12-20T07:37:13;96877.41;;;4.67;100.00
70954;BME280;58618;47.490;8.736;2023-12-20T07:40:00;96878.06;;;4.74;100.00
70954;BME280;58618;47.490;8.736;2023-12-20T07:42:50;96867.50;;;4.71;100.00
70954;BME280;58618;47.490;8.736;2023-12-20T07:45:38;96888.59;;;4.78;100.00
70954;BME280;58618;47.490;8.736;2023-12-20T07:48:25;96885.94;;;4.73;100.00
70954;BME280;58618;47.490;8.736;2023-12-20T07:51:13;96899.91;;;4.82;100.00
70954;BME280;58618;47.490;8.736;2023-12-20T07:54:00;96896.34;;;4.83;100.00
70954;BME280;58618;47.490;8.736;2023-12-20T07:56:48;96904.03;;;4.83;100.00
70954;BME280;58618;47.490;8.736;2023-12-20T07:59:37;96897.91;;;4.84;100.00
70954;BME280;58618;47.490;8.736;2023-12-20T08:02:24;96899.00;;;4.88;100.00
70954;BME280;58618;47.490;8.736;2023-12-20T08:05:12;96902.56;;;4.87;100.00
70954;BME280;58618;47.490;8.736;2023-12-20T08:07:59;96905.69;;;4.89;100.00
70954;BME280;58618;47.490;8.736;2023-12-20T08:10:47;96914.81;;;4.85;100.00
70954;BME280;58618;47.490;8.736;2023-12-20T08:13:34;96906.34;;;4.96;100.00
70954;BME280;58618;47.490;8.736;2023-12-20T08:16:23;96899.88;;;5.05;100.00
70954;BME280;58618;47.490;8.736;2023-12-20T08:19:10;96911.00;;;4.99;100.00
70954;BME280;58618;47.490;8.736;2023-12-20T08:21:58;96914.75;;;5.08;100.00
70954;BME280;58618;47.490;8.736;2023-12-20T08:24:45;96919.84;;;5.08;100.00
70954;BME280;58618;47.490;8.736;2023-12-20T08:27:33;96908.00;;;5.02;100.00
70954;BME280;58618;47.490;8.736;2023-12-20T08:30:20;96907.03;;;5.20;100.00
70954;BME280;58618;47.490;8.736;2023-12-20T08:33:09;96910.69;;;5.24;100.00
70954;BME280;58618;47.490;8.736;2023-12-20T08:35:58;96917.69;;;5.28;100.00
70954;BME280;58618;47.490;8.736;2023-12-20T08:38:46;96919.31;;;5.34;100.00
70954;BME280;58618;47.490;8.736;2023-12-20T08:41:34;96901.25;;;5.24;100.00
70954;BME280;58618;47.490;8.736;2023-12-20T08:44:22;96915.13;;;5.28;100.00
70954;BME280;58618;47.490;8.736;2023-12-20T08:47:10;96915.59;;;5.25;100.00
70954;BME280;58618;47.490;8.736;2023-12-20T08:50:00;96922.91;;;5.33;100.00
70954;BME280;58618;47.490;8.736;2023-12-20T08:52:47;96929.41;;;5.41;100.00
70954;BME280;58618;47.490;8.736;2023-12-20T08:55:36;96911.28;;;5.42;100.00
70954;BME280;58618;47.490;8.736;2023-12-20T08:58:23;96904.53;;;5.36;100.00
70954;BME280;58618;47.490;8.736;2023-12-20T09:01:10;96910.13;;;5.33;100.00
70954;BME280;58618;47.490;8.736;2023-12-20T09:03:58;96904.91;;;5.28;100.00
70954;BME280;58618;47.490;8.736;2023-12-20T09:06:46;96905.44;;;5.30;100.00
70954;BME280;58618;47.490;8.736;2023-12-20T09:09:34;96910.97;;;5.39;100.00
70954;BME280;58618;47.490;8.736;2023-12-20T09:12:21;96907.97;;;5.42;100.00
70954;BME280;58618;47.490;8.736;2023-12-20T09:15:09;96921.16;;;5.50;100.00
70954;BME280;58618;47.490;8.736;2023-12-20T09:17:56;96920.16;;;5.51;100.00
70954;BME280;58618;47.490;8.736;2023-12-20T09:20:44;96919.06;;;5.47;100.00
70954;BME280;58618;47.490;8.736;2023-12-20T09:23:33;96923.34;;;5.59;100.00
70954;BME280;58618;47.490;8.736;2023-12-20T09:26:20;96907.91;;;5.53;100.00
70954;BME280;58618;47.490;8.736;2023-12-20T09:29:08;96921.78;;;5.58;100.00
70954;BME280;58618;47.490;8.736;2023-12-20T09:31:56;96919.41;;;5.68;100.00
70954;BME280;58618;47.490;8.736;2023-12-20T09:34:44;96919.97;;;5.70;100.00
70954;BME280;58618;47.490;8.736;2023-12-20T09:37:31;96914.13;;;5.58;100.00
70954;BME280;58618;47.490;8.736;2023-12-20T09:40:20;96922.09;;;5.61;100.00
70954;BME280;58618;47.490;8.736;2023-12-20T09:43:10;96915.84;;;5.69;100.00
70954;BME280;58618;47.490;8.736;2023-12-20T09:46:00;96924.69;;;5.78;100.00
70954;BME280;58618;47.490;8.736;2023-12-20T09:48:48;96919.78;;;5.76;100.00
70954;BME280;58618;47.490;8.736;2023-12-20T09:51:36;96923.59;;;5.74;100.00
70954;BME280;58618;47.490;8.736;2023-12-20T09:54:23;96927.81;;;5.80;100.00
70954;BME280;58618;47.490;8.736;2023-12-20T09:57:12;96924.09;;;5.87;100.00
70954;BME280;58618;47.490;8.736;2023-12-20T09:59:59;96923.69;;;5.79;100.00
70954;BME280;58618;47.490;8.736;2023-12-20T10:02:50;96928.88;;;5.84;100.00
70954;BME280;58618;47.490;8.736;2023-12-20T10:05:43;96932.56;;;5.88;100.00
70954;BME280;58618;47.490;8.736;2023-12-20T10:08:31;96921.13;;;5.79;100.00
70954;BME280;58618;47.490;8.736;2023-12-20T10:11:19;96933.19;;;5.95;100.00
70954;BME280;58618;47.490;8.736;2023-12-20T10:14:08;96928.88;;;6.12;100.00
70954;BME280;58618;47.490;8.736;2023-12-20T10:17:02;96916.81;;;6.29;100.00
70954;BME280;58618;47.490;8.736;2023-12-20T10:19:49;96901.69;;;6.28;100.00
70954;BME280;58618;47.490;8.736;2023-12-20T10:22:37;96905.91;;;6.56;100.00
70954;BME280;58618;47.490;8.736;2023-12-20T10:25:24;96901.06;;;6.76;100.00
70954;BME280;58618;47.490;8.736;2023-12-20T10:28:13;96891.88;;;6.80;100.00
70954;BME280;58618;47.490;8.736;2023-12-20T10:31:04;96891.13;;;6.63;100.00
70954;BME280;58618;47.490;8.736;2023-12-20T10:33:52;96886.13;;;6.73;100.00
70954;BME280;58618;47.490;8.736;2023-12-20T10:36:39;96876.19;;;6.55;100.00
70954;BME280;58618;47.490;8.736;2023-12-20T10:39:26;96879.94;;;6.69;100.00
70954;BME280;58618;47.490;8.736;2023-12-20T10:42:15;96878.69;;;6.71;100.00
70954;BME280;58618;47.490;8.736;2023-12-20T10:45:04;96874.44;;;6.82;100.00
70954;BME280;58618;47.490;8.736;2023-12-20T10:47:53;96873.13;;;6.58;100.00
70954;BME280;58618;47.490;8.736;2023-12-20T10:50:41;96861.38;;;6.40;100.00
70954;BME280;58618;47.490;8.736;2023-12-20T10:53:29;96866.06;;;6.65;100.00
70954;BME280;58618;47.490;8.736;2023-12-20T10:56:18;96862.09;;;6.57;100.00
70954;BME280;58618;47.490;8.736;2023-12-20T10:59:07;96868.25;;;6.78;100.00
70954;BME280;58618;47.490;8.736;2023-12-20T11:01:58;96866.22;;;6.80;100.00
70954;BME280;58618;47.490;8.736;2023-12-20T11:04:53;96861.50;;;6.72;100.00
70954;BME280;58618;47.490;8.736;2023-12-20T11:07:46;96854.53;;;6.46;100.00
70954;BME280;58618;47.490;8.736;2023-12-20T11:10:40;96842.66;;;6.18;100.00
70954;BME280;58618;47.490;8.736;2023-12-20T11:13:33;96852.25;;;6.27;100.00
70954;BME280;58618;47.490;8.736;2023-12-20T11:16:21;96850.22;;;6.29;100.00
70954;BME280;58618;47.490;8.736;2023-12-20T11:19:11;96848.19;;;6.31;100.00
70954;BME280;58618;47.490;8.736;2023-12-20T11:22:01;96845.06;;;6.46;100.00
70954;BME280;58618;47.490;8.736;2023-12-20T11:24:49;96839.75;;;6.53;100.00
70954;BME280;58618;47.490;8.736;2023-12-20T11:27:41;96850.63;;;6.60;100.00
70954;BME280;58618;47.490;8.736;2023-12-20T11:30:40;96839.81;;;6.58;100.00
70954;BME280;58618;47.490;8.736;2023-12-20T11:33:30;96841.84;;;6.56;100.00
70954;BME280;58618;47.490;8.736;2023-12-20T11:36:18;96833.44;;;6.39;100.00
70954;BME280;58618;47.490;8.736;2023-12-20T11:39:08;96855.41;;;6.34;100.00
70954;BME280;58618;47.490;8.736;2023-12-20T11:41:56;96854.94;;;6.38;100.00
70954;BME280;58618;47.490;8.736;2023-12-20T11:44:44;96855.81;;;6.26;100.00
70954;BME280;58618;47.490;8.736;2023-12-20T11:47:31;96839.97;;;6.29;100.00
70954;BME280;58618;47.490;8.736;2023-12-20T11:50:20;96846.72;;;6.35;100.00
70954;BME280;58618;47.490;8.736;2023-12-20T11:53:07;96852.50;;;6.48;100.00
70954;BME280;58618;47.490;8.736;2023-12-20T11:55:56;96852.75;;;6.68;100.00
70954;BME280;58618;47.490;8.736;2023-12-20T11:58:44;96846.63;;;6.69;100.00
70954;BME280;58618;47.490;8.736;2023-12-20T12:01:31;96854.84;;;6.71;100.00
70954;BME280;58618;47.490;8.736;2023-12-20T12:04:19;96856.66;;;6.70;100.00
70954;BME280;58618;47.490;8.736;2023-12-20T12:07:06;96847.03;;;6.61;100.00
70954;BME280;58618;47.490;8.736;2023-12-20T12:09:54;96846.56;;;6.64;100.00
70954;BME280;58618;47.490;8.736;2023-12-20T12:12:43;96843.38;;;6.57;100.00
70954;BME280;58618;47.490;8.736;2023-12-20T12:15:30;96835.25;;;6.60;100.00
70954;BME280;58618;47.490;8.736;2023-12-20T12:18:18;96833.84;;;6.74;100.00
70954;BME280;58618;47.490;8.736;2023-12-20T12:21:05;96823.56;;;6.69;100.00
70954;BME280;58618;47.490;8.736;2023-12-20T12:23:52;96834.69;;;6.58;100.00
70954;BME280;58618;47.490;8.736;2023-12-20T12:26:40;96836.06;;;6.44;100.00
70954;BME280;58618;47.490;8.736;2023-12-20T12:29:29;96832.22;;;6.24;100.00
70954;BME280;58618;47.490;8.736;2023-12-20T12:32:16;96826.81;;;6.04;100.00
70954;BME280;58618;47.490;8.736;2023-12-20T12:35:04;96834.13;;;6.12;100.00
70954;BME280;58618;47.490;8.736;2023-12-20T12:37:52;96824.00;;;6.22;100.00
70954;BME280;58618;47.490;8.736;2023-12-20T12:40:40;96832.53;;;6.28;100.00
70954;BME280;58618;47.490;8.736;2023-12-20T12:43:27;96824.66;;;5.96;100.00
70954;BME280;58618;47.490;8.736;2023-12-20T12:46:16;96827.59;;;5.88;100.00
70954;BME280;58618;47.490;8.736;2023-12-20T12:49:04;96838.47;;;5.95;100.00
70954;BME280;58618;47.490;8.736;2023-12-20T12:51:51;96821.69;;;6.04;100.00
70954;BME280;58618;47.490;8.736;2023-12-20T12:54:40;96844.06;;;5.92;100.00
70954;BME280;58618;47.490;8.736;2023-12-20T12:57:28;96865.00;;;5.89;100.00
70954;BME280;58618;47.490;8.736;2023-12-20T13:00:16;96860.63;;;5.73;100.00
70954;BME280;58618;47.490;8.736;2023-12-20T13:03:06;96852.06;;;5.50;100.00
70954;BME280;58618;47.490;8.736;2023-12-20T13:05:53;96856.88;;;5.47;100.00
70954;BME280;58618;47.490;8.736;2023-12-20T13:08:41;96852.53;;;5.47;100.00
70954;BME280;58618;47.490;8.736;2023-12-20T13:11:29;96844.16;;;5.35;100.00
70954;BME280;58618;47.490;8.736;2023-12-20T13:14:17;96855.28;;;5.29;100.00
70954;BME280;58618;47.490;8.736;2023-12-20T13:17:04;96850.00;;;5.19;100.00
70954;BME280;58618;47.490;8.736;2023-12-20T13:19:53;96853.59;;;5.18;100.00
70954;BME280;58618;47.490;8.736;2023-12-20T13:22:41;96846.22;;;4.93;100.00
70954;BME280;58618;47.490;8.736;2023-12-20T13:25:28;96860.78;;;4.93;100.00
70954;BME280;58618;47.490;8.736;2023-12-20T13:28:15;96858.78;;;4.95;100.00
70954;BME280;58618;47.490;8.736;2023-12-20T13:31:03;96859.22;;;4.92;100.00
70954;BME280;58618;47.490;8.736;2023-12-20T13:33:50;96850.38;;;4.83;100.00
70954;BME280;58618;47.490;8.736;2023-12-20T13:36:39;96863.69;;;4.85;100.00
70954;BME280;58618;47.490;8.736;2023-12-20T13:39:27;96856.72;;;4.80;100.00
70954;BME280;58618;47.490;8.736;2023-12-20T13:42:14;96868.72;;;4.80;100.00
70954;BME280;58618;47.490;8.736;2023-12-20T13:45:02;96874.34;;;4.82;100.00
70954;BME280;58618;47.490;8.736;2023-12-20T13:47:50;96867.56;;;4.87;100.00
70954;BME280;58618;47.490;8.736;2023-12-20T13:50:38;96878.25;;;4.84;100.00
70954;BME280;58618;47.490;8.736;2023-12-20T13:53:27;96867.56;;;4.87;100.00
70954;BME280;58618;47.490;8.736;2023-12-20T13:56:14;96860.59;;;4.83;100.00
70954;BME280;58618;47.490;8.736;2023-12-20T13:59:02;96863.81;;;4.78;100.00
70954;BME280;58618;47.490;8.736;2023-12-20T14:01:49;96857.94;;;4.78;100.00
70954;BME280;58618;47.490;8.736;2023-12-20T14:04:36;96876.50;;;4.73;100.00
70954;BME280;58618;47.490;8.736;2023-12-20T14:07:25;96887.72;;;4.60;100.00
70954;BME280;58618;47.490;8.736;2023-12-20T14:10:16;96888.41;;;4.44;100.00
70954;BME280;58618;47.490;8.736;2023-12-20T14:13:04;96892.19;;;4.30;100.00
70954;BME280;58618;47.490;8.736;2023-12-20T14:15:51;96891.09;;;4.26;100.00
70954;BME280;58618;47.490;8.736;2023-12-20T14:18:41;96898.75;;;4.38;100.00
70954;BME280;58618;47.490;8.736;2023-12-20T14:21:29;96899.19;;;4.35;100.00
70954;BME280;58618;47.490;8.736;2023-12-20T14:24:16;96900.63;;;4.19;100.00
70954;BME280;58618;47.490;8.736;2023-12-20T14:27:06;96913.97;;;4.21;100.00
70954;BME280;58618;47.490;8.736;2023-12-20T14:29:55;96906.63;;;4.13;100.00
70954;BME280;58618;47.490;8.736;2023-12-20T14:32:43;96909.50;;;4.05;100.00
70954;BME280;58618;47.490;8.736;2023-12-20T14:35:31;96916.50;;;4.09;100.00
70954;BME280;58618;47.490;8.736;2023-12-20T14:38:19;96916.97;;;4.06;100.00
70954;BME280;58618;47.490;8.736;2023-12-20T14:41:06;96909.81;;;3.97;100.00
70954;BME280;58618;47.490;8.736;2023-12-20T14:43:56;96928.13;;;3.94;100.00
70954;BME280;58618;47.490;8.736;2023-12-20T14:46:45;96930.13;;;3.92;100.00
70954;BME280;58618;47.490;8.736;2023-12-20T14:49:33;96916.34;;;3.69;100.00